Time;durP1;ratioP1;P1;durP2;ratioP2;P2;SDS_P1;SDS_P2;PMS_P1;PMS_P2;Temp;Humidity;BMP_temperature;BMP_pressure;BME280_temperature;BME280_humidity;BME280_pressure;Samples;Min_cycle;Max_cycle;Signal;HPM_P1;HPM_P2
2022/10/25 00:01:58;;;;;;;12.80;2.97;;;;;;;12.65;100.00;101073.72;5255582;28;20033;-74
2022/10/25 00:04:29;;;;;;;10.93;2.50;;;;;;;12.69;100.00;101077.78;5256028;28;20571;-73
2022/10/25 00:07:00;;;;;;;11.50;2.87;;;;;;;12.66;100.00;101082.41;5254274;28;20045;-75
2022/10/25 00:09:32;;;;;;;12.70;3.03;;;;;;;12.64;100.00;101079.03;5256304;28;20025;-75
2022/10/25 00:12:04;;;;;;;10.67;2.87;;;;;;;12.67;100.00;101092.00;5253888;28;20052;-75
2022/10/25 00:14:35;;;;;;;11.80;2.93;;;;;;;12.65;100.00;101094.72;5255566;28;20518;-74
2022/10/25 00:17:07;;;;;;;13.03;4.20;;;;;;;12.70;100.00;101092.63;5254132;28;20029;-73
2022/10/25 00:19:38;;;;;;;10.47;2.10;;;;;;;12.71;100.00;101090.84;5255941;28;20077;-74
2022/10/25 00:22:09;;;;;;;12.60;2.50;;;;;;;12.73;100.00;101094.22;5255652;28;20033;-74
2022/10/25 00:24:40;;;;;;;12.97;3.13;;;;;;;12.74;100.00;101088.00;5254468;28;20226;-75
2022/10/25 00:27:12;;;;;;;25.23;3.67;;;;;;;12.74;100.00;101089.81;5254914;28;20455;-74
2022/10/25 00:29:43;;;;;;;12.13;3.20;;;;;;;12.77;100.00;101089.59;5253853;28;20070;-74
2022/10/25 00:32:14;;;;;;;11.40;2.50;;;;;;;12.78;100.00;101096.53;5255604;28;20033;-74
2022/10/25 00:34:46;;;;;;;12.77;2.80;;;;;;;12.77;100.00;101090.44;5258321;28;20086;-75
2022/10/25 00:37:17;;;;;;;15.47;2.63;;;;;;;12.79;100.00;101093.81;5256608;28;20029;-75
2022/10/25 00:39:49;;;;;;;13.83;2.93;;;;;;;12.80;100.00;101098.13;5255414;28;20157;-75
2022/10/25 00:42:23;;;;;;;8.63;2.40;;;;;;;12.85;100.00;101096.97;5254622;28;20419;-75
2022/10/25 00:44:56;;;;;;;;;;;;;;;12.90;100.00;101101.00;5255763;28;20090;-73
2022/10/25 00:47:47;;;;;;;13.67;2.97;;;;;;;12.86;100.00;101103.94;5255573;28;19920;-74
2022/10/25 00:50:31;;;;;;;13.43;2.50;;;;;;;12.87;100.00;101095.09;5255216;28;20088;-74
2022/10/25 00:53:16;;;;;;;15.20;2.53;;;;;;;12.91;100.00;101099.22;5255131;28;20037;-73
2022/10/25 00:56:01;;;;;;;11.43;2.47;;;;;;;12.88;100.00;101096.78;5254627;28;20501;-75
2022/10/25 00:58:36;;;;;;;13.37;3.37;;;;;;;12.91;100.00;101096.59;5254331;28;20048;-73
2022/10/25 01:01:08;;;;;;;16.07;2.70;;;;;;;12.81;100.00;101091.91;5253546;28;20036;-72
2022/10/25 01:03:42;;;;;;;10.60;3.17;;;;;;;12.89;100.00;101106.34;5255857;28;20033;-73
2022/10/25 01:06:22;;;;;;;10.95;2.50;;;;;;;12.87;100.00;101100.34;5254987;28;20374;-75
2022/10/25 01:08:55;;;;;;;10.20;2.30;;;;;;;12.85;100.00;101104.84;5254108;28;20086;-75
2022/10/25 01:11:27;;;;;;;14.77;2.60;;;;;;;12.83;100.00;101110.22;5255132;28;20036;-75
2022/10/25 01:13:58;;;;;;;14.73;3.20;;;;;;;12.85;100.00;101118.00;5253883;28;20556;-75
2022/10/25 01:17:01;;;;;;;17.27;2.57;;;;;;;12.80;100.00;101113.91;5253417;28;20028;-72
2022/10/25 01:19:51;;;;;;;10.10;2.53;;;;;;;12.85;100.00;101113.59;5257801;28;20037;-75
2022/10/25 01:22:56;;;;;;;11.97;2.60;;;;;;;12.88;100.00;101113.38;5257932;28;20154;-74
2022/10/25 01:26:13;;;;;;;10.50;2.25;;;;;;;12.89;100.00;101124.75;5258509;28;20029;-73
2022/10/25 01:29:13;;;;;;;9.97;2.53;;;;;;;12.82;100.00;101124.31;5258315;28;20056;-74
2022/10/25 01:31:56;;;;;;;9.60;2.33;;;;;;;12.79;100.00;101121.88;5257627;28;20079;-75
2022/10/25 01:34:30;;;;;;;12.07;2.70;;;;;;;12.83;100.00;101131.25;5256864;28;20060;-75
2022/10/25 01:37:10;;;;;;;17.90;2.70;;;;;;;12.85;100.00;101136.41;5258713;28;20028;-74
2022/10/25 01:39:47;;;;;;;12.77;3.17;;;;;;;12.78;100.00;101128.06;5258985;28;20028;-75
2022/10/25 01:42:29;;;;;;;17.10;2.57;;;;;;;12.83;100.00;101126.84;5258520;28;20032;-74
2022/10/25 01:45:10;;;;;;;11.40;2.20;;;;;;;12.87;100.00;101137.13;5257243;28;20353;-72
2022/10/25 01:47:44;;;;;;;13.33;3.43;;;;;;;12.87;100.00;101131.88;5258683;28;20045;-73
2022/10/25 01:50:21;;;;;;;16.73;3.83;;;;;;;12.86;100.00;101135.47;5264190;28;20328;-74
2022/10/25 01:52:53;;;;;;;17.33;2.80;;;;;;;12.83;100.00;101131.25;5262678;28;20111;-74
2022/10/25 01:55:43;;;;;;;14.97;2.60;;;;;;;12.86;100.00;101132.84;5256963;28;20112;-74
2022/10/25 01:58:23;;;;;;;11.03;2.70;;;;;;;12.88;100.00;101141.47;5258276;28;20021;-74
2022/10/25 02:01:05;;;;;;;16.07;2.93;;;;;;;12.85;100.00;101136.41;5256918;28;20142;-72
2022/10/25 02:03:51;;;;;;;15.07;3.00;;;;;;;12.81;100.00;101139.22;5259107;28;20025;-74
2022/10/25 02:06:43;;;;;;;12.37;2.27;;;;;;;12.93;100.00;101134.13;5258534;28;20472;-72
2022/10/25 02:09:23;;;;;;;10.97;2.53;;;;;;;12.86;100.00;101146.84;5257097;28;20088;-74
2022/10/25 02:11:58;;;;;;;9.53;2.07;;;;;;;12.75;100.00;101150.16;5255855;28;20029;-73
2022/10/25 02:14:45;;;;;;;13.70;2.50;;;;;;;12.73;100.00;101154.66;5257641;28;20033;-74
2022/10/25 02:17:23;;;;;;;12.27;2.60;;;;;;;12.76;100.00;101157.06;5258562;28;20083;-74
2022/10/25 02:20:01;;;;;;;10.77;2.23;;;;;;;12.69;100.00;101148.75;5258637;28;20033;-74
2022/10/25 02:22:33;;;;;;;10.47;2.23;;;;;;;12.69;100.00;101155.78;5257845;28;20085;-74
2022/10/25 02:25:07;;;;;;;10.90;2.50;;;;;;;12.58;100.00;101138.91;5257635;28;20120;-72
2022/10/25 02:27:38;;;;;;;13.00;2.90;;;;;;;12.66;100.00;101154.22;5257077;28;20033;-74
2022/10/25 02:30:10;;;;;;;11.73;2.87;;;;;;;12.62;100.00;101146.63;5255168;28;20027;-74
2022/10/25 02:32:42;;;;;;;12.83;3.10;;;;;;;12.56;100.00;101140.81;5256133;28;20071;-74
2022/10/25 02:35:14;;;;;;;10.20;2.80;;;;;;;12.62;100.00;101149.25;5261156;28;20024;-75
2022/10/25 02:37:46;;;;;;;13.90;3.10;;;;;;;12.57;100.00;101153.00;5258324;28;20031;-74
2022/10/25 02:40:18;;;;;;;14.90;2.50;;;;;;;12.59;100.00;101163.41;5257470;28;20029;-75
2022/10/25 02:42:49;;;;;;;21.47;4.30;;;;;;;12.57;100.00;101153.00;5256021;28;20025;-74
2022/10/25 02:45:20;;;;;;;10.07;2.90;;;;;;;12.51;100.00;101142.03;5257667;28;20035;-75
2022/10/25 02:47:52;;;;;;;11.60;2.83;;;;;;;12.57;100.00;101158.25;5255320;28;20119;-75
2022/10/25 02:50:23;;;;;;;12.27;2.77;;;;;;;12.57;100.00;101168.78;5257899;28;20047;-74
2022/10/25 02:52:54;;;;;;;13.00;3.00;;;;;;;12.56;100.00;101167.09;5255925;28;20021;-74
2022/10/25 02:55:25;;;;;;;10.33;3.17;;;;;;;12.45;100.00;101159.88;5257261;28;20036;-74
2022/10/25 02:57:57;;;;;;;14.50;2.80;;;;;;;12.53;100.00;101167.25;5254691;28;20025;-75
2022/10/25 03:00:28;;;;;;;13.07;3.37;;;;;;;12.52;100.00;101160.34;5256801;28;20029;-74
2022/10/25 03:03:00;;;;;;;11.17;3.37;;;;;;;12.53;100.00;101174.31;5256833;28;20530;-74
2022/10/25 03:05:31;;;;;;;12.37;3.07;;;;;;;12.54;100.00;101174.22;5257074;28;20076;-74
2022/10/25 03:08:02;;;;;;;8.63;3.07;;;;;;;12.50;100.00;101177.97;5255760;28;20045;-72
2022/10/25 03:10:35;;;;;;;9.67;2.60;;;;;;;12.50;100.00;101177.16;5258429;28;20036;-73
2022/10/25 03:13:07;;;;;;;11.00;2.07;;;;;;;12.50;100.00;101174.53;5257778;28;20091;-74
2022/10/25 03:15:38;;;;;;;9.77;2.63;;;;;;;12.43;100.00;101171.41;5256888;28;20029;-74
2022/10/25 03:18:10;;;;;;;12.67;3.57;;;;;;;12.42;100.00;101175.84;5257000;28;20052;-74
2022/10/25 03:20:42;;;;;;;8.60;2.40;;;;;;;12.44;100.00;101175.75;5257425;28;20032;-74
2022/10/25 03:23:13;;;;;;;10.60;2.43;;;;;;;12.32;100.00;101169.47;5257173;28;20028;-73
2022/10/25 03:25:44;;;;;;;6.10;2.13;;;;;;;12.34;100.00;101184.19;5255177;28;20052;-74
2022/10/25 03:28:16;;;;;;;13.77;2.40;;;;;;;12.38;100.00;101181.38;5256546;28;20522;-74
2022/10/25 03:30:47;;;;;;;9.00;2.17;;;;;;;12.32;100.00;101188.69;5256350;28;20433;-74
2022/10/25 03:33:18;;;;;;;10.30;2.00;;;;;;;12.28;100.00;101194.22;5255667;28;20456;-73
2022/10/25 03:35:51;;;;;;;8.93;2.57;;;;;;;12.33;100.00;101210.53;5256661;28;20029;-74
2022/10/25 03:38:23;;;;;;;16.20;3.20;;;;;;;12.26;100.00;101198.72;5256776;28;20070;-73
2022/10/25 03:40:54;;;;;;;7.60;2.20;;;;;;;12.26;100.00;101210.09;5256289;28;20024;-73
2022/10/25 03:43:25;;;;;;;10.23;3.00;;;;;;;12.27;100.00;101214.38;5255726;28;20162;-73
2022/10/25 03:45:57;;;;;;;13.77;2.80;;;;;;;12.29;100.00;101222.16;5254645;28;20052;-73
2022/10/25 03:48:28;;;;;;;11.93;2.20;;;;;;;12.31;100.00;101230.81;5256067;28;20430;-74
2022/10/25 03:51:00;;;;;;;7.87;1.77;;;;;;;12.24;100.00;101211.97;5256085;28;20060;-73
2022/10/25 03:53:32;;;;;;;11.57;2.63;;;;;;;12.22;100.00;101219.94;5256561;28;20021;-74
2022/10/25 03:56:03;;;;;;;10.63;3.13;;;;;;;12.19;100.00;101217.50;5254497;28;20427;-74
2022/10/25 03:58:35;;;;;;;11.10;2.60;;;;;;;12.14;100.00;101224.81;5255753;28;20060;-75
2022/10/25 04:01:09;;;;;;;9.70;2.30;;;;;;;12.20;100.00;101228.84;5256142;28;20020;-74
2022/10/25 04:03:43;;;;;;;9.20;2.53;;;;;;;12.18;100.00;101226.28;5255801;28;20032;-74
2022/10/25 04:06:14;;;;;;;6.10;2.10;;;;;;;12.19;100.00;101235.88;5255095;28;20013;-74
2022/10/25 04:08:45;;;;;;;11.53;2.23;;;;;;;12.17;100.00;101239.53;5260727;28;20051;-74
2022/10/25 04:11:17;;;;;;;10.00;2.77;;;;;;;12.22;100.00;101237.47;5254461;28;20040;-75
2022/10/25 04:13:48;;;;;;;11.23;2.80;;;;;;;12.21;100.00;101236.63;5254672;28;20039;-73
2022/10/25 04:16:19;;;;;;;7.07;2.53;;;;;;;12.20;100.00;101234.09;5255878;28;20032;-72
2022/10/25 04:18:52;;;;;;;8.77;2.20;;;;;;;12.23;100.00;101236.53;5254559;28;20078;-74
2022/10/25 04:21:24;;;;;;;6.50;2.63;;;;;;;12.18;100.00;101225.47;5245399;28;20033;-72
2022/10/25 04:23:55;;;;;;;10.27;2.07;;;;;;;12.14;100.00;101224.81;5255483;28;20043;-74
2022/10/25 04:26:26;;;;;;;5.93;2.50;;;;;;;12.14;100.00;101232.69;5254921;28;20044;-75
2022/10/25 04:28:58;;;;;;;8.43;2.97;;;;;;;12.19;100.00;101242.91;5255668;28;20033;-74
2022/10/25 04:31:29;;;;;;;8.50;2.83;;;;;;;12.11;100.00;101240.75;5255656;28;20081;-74
2022/10/25 04:34:01;;;;;;;11.60;2.63;;;;;;;12.12;100.00;101245.06;5257074;28;20040;-74
2022/10/25 04:36:32;;;;;;;11.30;2.60;;;;;;;12.17;100.00;101250.03;5258030;28;20033;-75
2022/10/25 04:39:04;;;;;;;11.00;2.90;;;;;;;12.11;100.00;101246.00;5254807;28;20032;-75
2022/10/25 04:41:35;;;;;;;9.90;3.87;;;;;;;12.07;100.00;101255.81;5254645;28;20209;-74
2022/10/25 04:44:07;;;;;;;10.50;3.00;;;;;;;12.07;100.00;101244.47;5255284;28;20112;-75
2022/10/25 04:46:38;;;;;;;9.67;2.87;;;;;;;11.90;100.00;101238.44;5254099;28;20025;-75
2022/10/25 04:49:12;;;;;;;10.77;3.33;;;;;;;12.04;100.00;101245.50;5255271;28;20064;-73
2022/10/25 04:51:43;;;;;;;11.70;3.40;;;;;;;12.02;100.00;101249.13;5253198;28;20033;-73
2022/10/25 04:54:14;;;;;;;20.23;4.53;;;;;;;11.98;100.00;101245.84;5259648;28;20118;-74
2022/10/25 04:56:46;;;;;;;9.33;3.00;;;;;;;11.95;100.00;101246.88;5256871;28;20024;-74
2022/10/25 04:59:17;;;;;;;14.47;3.77;;;;;;;11.95;100.00;101251.28;5259831;28;20033;-74
2022/10/25 05:01:48;;;;;;;10.43;3.20;;;;;;;11.95;100.00;101251.28;5258091;28;20410;-74
2022/10/25 05:04:19;;;;;;;9.57;2.73;;;;;;;12.02;100.00;101259.63;5259216;28;20104;-74
2022/10/25 05:06:51;;;;;;;7.17;3.20;;;;;;;11.94;100.00;101252.22;5258027;28;20479;-74
2022/10/25 05:09:22;;;;;;;11.60;3.37;;;;;;;11.96;100.00;101263.47;5259327;28;20054;-73
2022/10/25 05:11:53;;;;;;;12.27;3.60;;;;;;;11.89;100.00;101259.50;5256498;28;20037;-75
2022/10/25 05:14:24;;;;;;;11.77;2.80;;;;;;;11.84;100.00;101262.41;5257812;28;20105;-75
2022/10/25 05:16:56;;;;;;;14.37;3.57;;;;;;;11.88;100.00;101261.31;5257234;28;20056;-74
2022/10/25 05:19:27;;;;;;;8.93;3.20;;;;;;;11.83;100.00;101264.19;5258248;28;20033;-74
2022/10/25 05:21:58;;;;;;;16.77;3.53;;;;;;;11.82;100.00;101267.75;5257521;28;20021;-75
2022/10/25 05:24:30;;;;;;;13.23;3.10;;;;;;;11.76;100.00;101265.50;5259469;28;20041;-74
2022/10/25 05:27:03;;;;;;;6.77;2.50;;;;;;;11.84;100.00;101271.13;5256712;28;21844;-75
2022/10/25 05:29:34;;;;;;;16.27;3.50;;;;;;;11.78;100.00;101276.72;5258443;28;20033;-73
2022/10/25 05:32:06;;;;;;;10.37;2.63;;;;;;;11.72;100.00;101270.06;5258833;28;20033;-75
2022/10/25 05:34:37;;;;;;;14.73;3.37;;;;;;;11.83;100.00;101279.94;5257599;28;20115;-75
2022/10/25 05:37:09;;;;;;;12.83;2.73;;;;;;;11.80;100.00;101287.97;5258541;28;20029;-75
2022/10/25 05:39:40;;;;;;;10.13;3.20;;;;;;;11.77;100.00;101282.06;5257619;28;20568;-73
2022/10/25 05:42:11;;;;;;;14.30;3.63;;;;;;;11.76;100.00;101298.75;5256952;28;20033;-75
2022/10/25 05:44:42;;;;;;;10.90;3.23;;;;;;;11.78;100.00;101297.72;5258323;28;20037;-74
2022/10/25 05:47:14;;;;;;;11.83;3.37;;;;;;;11.78;100.00;101302.97;5257456;28;20120;-74
2022/10/25 05:49:45;;;;;;;11.63;3.40;;;;;;;11.73;100.00;101295.38;5258997;28;20040;-74
2022/10/25 05:52:16;;;;;;;10.40;3.23;;;;;;;11.74;100.00;101302.31;5259866;28;20064;-75
2022/10/25 05:54:48;;;;;;;8.37;3.13;;;;;;;11.76;100.00;101302.25;5262131;28;20021;-72
2022/10/25 05:57:19;;;;;;;14.17;4.07;;;;;;;11.75;100.00;101318.91;5256589;28;20017;-72
2022/10/25 05:59:50;;;;;;;10.83;4.17;;;;;;;11.69;100.00;101320.13;5258054;28;20079;-72
2022/10/25 06:02:21;;;;;;;9.60;3.40;;;;;;;11.73;100.00;101316.38;5258929;28;20031;-72
2022/10/25 06:04:53;;;;;;;7.63;3.13;;;;;;;11.76;100.00;101317.13;5257024;28;20041;-71
2022/10/25 06:07:24;;;;;;;14.13;4.00;;;;;;;11.73;100.00;101331.25;5257855;28;20049;-72
2022/10/25 06:09:55;;;;;;;14.30;4.00;;;;;;;11.73;100.00;101326.00;5257613;28;20060;-72
2022/10/25 06:12:27;;;;;;;14.90;4.43;;;;;;;11.76;100.00;101325.84;5256550;28;20039;-73
2022/10/25 06:14:58;;;;;;;10.20;4.40;;;;;;;11.71;100.00;101325.28;5258429;28;20468;-72
2022/10/25 06:17:29;;;;;;;16.53;4.97;;;;;;;11.67;100.00;101319.34;5258582;28;20029;-72
2022/10/25 06:20:02;;;;;;;18.97;5.27;;;;;;;11.76;100.00;101336.34;5260099;28;20387;-72
2022/10/25 06:22:33;;;;;;;13.23;5.17;;;;;;;11.71;100.00;101330.53;5258022;28;20116;-72
2022/10/25 06:25:05;;;;;;;12.00;5.70;;;;;;;11.77;100.00;101343.28;5257301;28;20033;-72
2022/10/25 06:27:36;;;;;;;16.80;4.87;;;;;;;11.77;100.00;101345.91;5257196;28;20033;-73
2022/10/25 06:30:08;;;;;;;11.33;5.27;;;;;;;11.64;100.00;101326.53;5256166;28;20124;-73
2022/10/25 06:32:39;;;;;;;11.80;4.50;;;;;;;11.80;100.00;101352.78;5257901;28;20495;-73
2022/10/25 06:35:10;;;;;;;11.63;5.40;;;;;;;11.81;100.00;101352.69;5256425;28;20028;-75
2022/10/25 06:37:42;;;;;;;10.17;4.93;;;;;;;11.73;100.00;101358.34;5257023;28;20029;-73
2022/10/25 06:40:13;;;;;;;11.60;5.40;;;;;;;11.78;100.00;101362.50;5255963;28;20037;-73
2022/10/25 06:42:44;;;;;;;14.10;6.07;;;;;;;11.78;100.00;101360.69;5256308;28;20044;-71
2022/10/25 06:45:16;;;;;;;16.90;6.00;;;;;;;11.78;100.00;101359.88;5257554;28;20166;-73
2022/10/25 06:47:47;;;;;;;12.37;5.20;;;;;;;11.74;100.00;101353.94;5257267;28;20361;-73
2022/10/25 06:50:18;;;;;;;12.93;6.10;;;;;;;11.76;100.00;101356.47;5257438;28;20044;-73
2022/10/25 06:52:49;;;;;;;15.33;5.03;;;;;;;11.71;100.00;101354.13;5257455;28;20106;-73
2022/10/25 06:55:21;;;;;;;10.07;4.73;;;;;;;11.73;100.00;101357.50;5256626;28;20123;-74
2022/10/25 06:57:55;;;;;;;10.60;5.23;;;;;;;11.79;100.00;101370.28;5256358;28;20047;-73
2022/10/25 07:00:26;;;;;;;13.43;5.75;;;;;;;11.81;100.00;101376.28;5256763;28;20045;-73
2022/10/25 07:02:58;;;;;;;18.00;6.83;;;;;;;11.87;100.00;101385.56;5257210;28;20028;-74
2022/10/25 07:05:29;;;;;;;20.07;7.00;;;;;;;11.82;100.00;101366.63;5257363;28;20467;-73
2022/10/25 07:08:01;;;;;;;13.50;6.10;;;;;;;11.78;100.00;101383.50;5256253;28;20052;-74
2022/10/25 07:10:32;;;;;;;14.13;5.73;;;;;;;11.83;100.00;101384.06;5256816;28;20037;-73
2022/10/25 07:13:03;;;;;;;14.57;6.77;;;;;;;11.89;100.00;101393.34;5256103;28;20025;-74
2022/10/25 07:15:35;;;;;;;14.00;6.23;;;;;;;11.92;100.00;101390.59;5256856;28;20025;-73
2022/10/25 07:18:06;;;;;;;17.20;6.17;;;;;;;11.94;100.00;101388.69;5256462;28;20025;-73
2022/10/25 07:20:37;;;;;;;18.60;6.03;;;;;;;12.05;100.00;101399.44;5256976;28;20021;-73
2022/10/25 07:23:09;;;;;;;16.43;6.37;;;;;;;12.05;100.00;101394.19;5257926;28;20021;-74
2022/10/25 07:25:41;;;;;;;10.60;5.60;;;;;;;12.12;100.00;101405.22;5258074;28;20041;-72
2022/10/25 07:28:12;;;;;;;17.77;6.27;;;;;;;12.15;100.00;101405.03;5255977;28;20048;-74
2022/10/25 07:30:45;;;;;;;22.57;6.10;;;;;;;12.20;100.00;101407.41;5256088;28;20037;-73
2022/10/25 07:33:18;;;;;;;12.40;5.60;;;;;;;12.20;100.00;101416.13;5257722;28;20074;-72
2022/10/25 07:35:50;;;;;;;12.97;4.80;;;;;;;12.21;100.00;101419.59;5255826;28;20029;-73
2022/10/25 07:38:21;;;;;;;15.53;5.93;;;;;;;12.25;100.00;101425.53;5257367;28;20495;-74
2022/10/25 07:40:56;;;;;;;16.50;6.10;;;;;;;12.30;100.00;101429.59;5257195;28;20075;-73
2022/10/25 07:43:28;;;;;;;10.70;5.07;;;;;;;12.31;100.00;101419.91;5259285;28;20021;-73
2022/10/25 07:45:59;;;;;;;15.43;5.73;;;;;;;12.32;100.00;101424.25;5257819;28;20025;-73
2022/10/25 07:48:31;;;;;;;16.27;6.57;;;;;;;12.35;100.00;101416.19;5256817;28;20033;-74
2022/10/25 07:51:05;;;;;;;15.53;6.57;;;;;;;12.38;100.00;101439.63;5255987;28;20029;-73
2022/10/25 07:53:36;;;;;;;12.48;5.70;;;;;;;12.39;100.00;101429.97;5234344;28;20029;-73
2022/10/25 07:56:13;;;;;;;15.13;5.40;;;;;;;12.43;100.00;101434.94;5234120;28;20506;-73
2022/10/25 07:58:44;;;;;;;13.40;5.70;;;;;;;12.38;100.00;101426.50;5235652;28;20049;-74
2022/10/25 08:01:21;;;;;;;13.13;6.03;;;;;;;12.44;100.00;101433.19;5235591;28;20387;-74
2022/10/25 08:03:54;;;;;;;15.10;5.40;;;;;;;12.46;100.00;101444.44;5237767;28;20044;-74
2022/10/25 08:06:25;;;;;;;14.57;5.27;;;;;;;12.49;100.00;101439.00;5256317;28;20025;-73
2022/10/25 08:08:57;;;;;;;17.70;5.50;;;;;;;12.50;100.00;101445.94;5256003;28;20049;-74
2022/10/25 08:11:28;;;;;;;14.93;5.63;;;;;;;12.49;100.00;101441.63;5254987;28;20041;-73
2022/10/25 08:13:59;;;;;;;16.53;6.73;;;;;;;12.58;100.00;101459.47;5254142;28;20032;-74
2022/10/25 08:16:30;;;;;;;16.83;6.33;;;;;;;12.57;100.00;101452.53;5255509;28;20035;-74
2022/10/25 08:19:02;;;;;;;11.07;5.60;;;;;;;12.60;100.00;101450.66;5254105;28;20029;-74
2022/10/25 08:21:33;;;;;;;14.67;6.40;;;;;;;12.65;100.00;101459.13;5259138;28;20065;-73
2022/10/25 08:24:05;;;;;;;14.30;5.90;;;;;;;12.66;100.00;101456.41;5257178;28;20025;-74
2022/10/25 08:26:36;;;;;;;16.57;6.10;;;;;;;12.64;100.00;101447.75;5253911;28;20047;-74
2022/10/25 08:29:07;;;;;;;14.70;5.83;;;;;;;12.72;100.00;101446.47;5255261;28;20029;-74
2022/10/25 08:31:38;;;;;;;13.87;5.97;;;;;;;12.82;100.00;101452.88;5248787;28;20047;-74
2022/10/25 08:34:10;;;;;;;12.77;5.80;;;;;;;12.83;100.00;101462.44;5254914;28;20056;-74
2022/10/25 08:36:41;;;;;;;13.47;5.83;;;;;;;12.88;100.00;101456.91;5255285;28;20124;-74
2022/10/25 08:39:12;;;;;;;14.57;5.63;;;;;;;12.93;100.00;101455.69;5254926;28;20021;-74
2022/10/25 08:41:51;;;;;;;10.60;5.97;;;;;;;12.96;100.00;101457.28;5254243;28;20033;-73
2022/10/25 08:44:57;;;;;;;14.73;5.70;;;;;;;13.04;100.00;101460.31;5254779;28;20051;-73
2022/10/25 08:47:32;;;;;;;17.57;5.90;;;;;;;13.16;100.00;101461.34;5237783;28;20132;-74
2022/10/25 08:50:11;;;;;;;11.30;5.50;;;;;;;13.19;100.00;101462.94;5254977;28;20025;-73
2022/10/25 08:52:55;;;;;;;13.37;4.73;;;;;;;13.25;100.00;101467.81;5255043;28;20029;-75
2022/10/25 08:55:40;;;;;;;20.27;5.88;;;;;;;13.26;100.00;101453.75;5255299;28;20098;-74
2022/10/25 08:58:16;;;;;;;14.47;5.10;;;;;;;13.37;100.00;101462.75;5238257;28;20052;-74
2022/10/25 09:00:48;;;;;;;11.60;4.70;;;;;;;13.67;100.00;101472.31;5254537;28;20116;-74
2022/10/25 09:03:25;;;;;;;15.33;4.80;;;;;;;13.78;100.00;101464.59;5255447;28;20115;-74
2022/10/25 09:06:23;;;;;;;12.00;4.10;;;;;;;13.75;100.00;101448.97;5253889;28;20037;-74
2022/10/25 09:08:57;;;;;;;15.63;4.50;;;;;;;14.05;100.00;101477.88;5254973;28;20037;-74
2022/10/25 09:11:56;;;;;;;14.95;4.85;;;;;;;14.20;100.00;101479.53;5253881;28;20037;-74
2022/10/25 09:14:53;;;;;;;11.80;4.53;;;;;;;14.16;100.00;101478.00;5241067;28;20109;-74
2022/10/25 09:17:52;;;;;;;12.63;4.40;;;;;;;14.23;100.00;101484.59;5253975;28;20396;-73
2022/10/25 09:20:32;;;;;;;12.33;4.50;;;;;;;14.19;100.00;101488.34;5255093;28;20620;-73
2022/10/25 09:23:18;;;;;;;10.73;4.60;;;;;;;14.25;100.00;101490.59;5266549;28;20021;-73
2022/10/25 09:26:19;;;;;;;10.43;3.63;;;;;;;14.35;100.00;101496.09;5251153;28;20033;-75
2022/10/25 09:28:59;;;;;;;14.47;4.37;;;;;;;14.57;100.00;101499.13;5255338;28;20033;-74
2022/10/25 09:31:37;;;;;;;7.97;3.27;;;;;;;14.56;100.00;101494.78;5253391;28;20498;-74
2022/10/25 09:34:10;;;;;;;17.57;4.50;;;;;;;14.50;100.00;101499.50;5254834;28;20367;-74
2022/10/25 09:36:47;;;;;;;8.90;3.37;;;;;;;14.51;100.00;101493.31;5254430;28;20025;-72
2022/10/25 09:39:24;;;;;;;14.33;3.80;;;;;;;14.42;100.00;101493.91;5253621;28;20097;-73
2022/10/25 09:41:57;;;;;;;12.03;4.33;;;;;;;14.36;100.00;101494.31;5257471;28;20063;-74
2022/10/25 09:44:37;;;;;;;13.70;3.13;;;;;;;14.36;100.00;101502.22;5258862;28;20468;-74
2022/10/25 09:47:09;;;;;;;16.23;4.33;;;;;;;14.31;100.00;101513.06;5257963;28;20025;-70
2022/10/25 09:49:55;;;;;;;13.27;3.50;;;;;;;14.26;100.00;101500.19;5258932;28;20066;-71
2022/10/25 09:52:33;;;;;;;14.37;3.27;;;;;;;14.21;100.00;101512.81;5258812;28;20465;-73
2022/10/25 09:55:25;;;;;;;10.67;3.73;;;;;;;14.20;100.00;101508.50;5258693;28;20028;-74
2022/10/25 09:57:56;;;;;;;14.47;4.83;;;;;;;14.22;100.00;101514.50;5255518;28;20036;-75
2022/10/25 10:00:28;;;;;;;13.57;3.63;;;;;;;14.23;100.00;101510.94;5258670;28;20033;-76
2022/10/25 10:02:59;;;;;;;12.60;3.53;;;;;;;14.30;100.00;101510.50;5257469;28;20041;-79
2022/10/25 10:05:31;;;;;;;15.23;3.37;;;;;;;14.28;100.00;101513.25;5269642;28;20115;-73
2022/10/25 10:08:02;;;;;;;10.50;2.77;;;;;;;14.19;100.00;101514.69;5258262;28;20049;-85
2022/10/25 10:10:34;;;;;;;12.93;2.97;;;;;;;14.23;100.00;101526.72;5259761;28;20064;-85
2022/10/25 10:13:43;;;;;;;13.80;2.80;;;;;;;14.32;100.00;101525.28;5254710;28;20369;-88
2022/10/25 10:16:20;;;;;;;10.33;2.50;;;;;;;14.26;100.00;101523.91;5254319;28;20028;-82
2022/10/25 10:19:12;;;;;;;9.03;2.63;;;;;;;14.37;100.00;101530.25;5258923;28;20017;-86
2022/10/25 10:21:51;;;;;;;11.43;2.93;;;;;;;14.31;100.00;101530.66;5258354;28;20053;-83
2022/10/25 10:24:25;;;;;;;19.27;3.73;;;;;;;14.27;100.00;101522.09;5257536;28;20495;-79
2022/10/25 10:26:58;;;;;;;10.05;3.03;;;;;;;14.21;100.00;101523.34;5253604;28;20070;-73
2022/10/25 10:29:33;;;;;;;10.82;3.15;;;;;;;14.24;100.00;101531.03;5248985;28;20063;-70
2022/10/25 10:32:22;;;;;;;9.10;3.37;;;;;;;14.27;100.00;101527.38;5258007;28;20033;-75
2022/10/25 10:34:56;;;;;;;6.23;3.13;;;;;;;14.22;100.00;101534.75;5258290;28;20025;-74
2022/10/25 10:37:30;;;;;;;14.63;3.65;;;;;;;14.33;100.00;101539.31;5256709;28;20142;-73
2022/10/25 10:40:24;;;;;;;10.73;2.88;;;;;;;14.37;100.00;101538.16;5257959;28;20466;-74
2022/10/25 10:42:55;;;;;;;11.65;3.70;;;;;;;14.32;100.00;101546.38;5256285;28;20028;-73
2022/10/25 10:45:26;;;;;;;18.50;3.27;;;;;;;14.39;100.00;101541.53;5258080;28;20024;-73
2022/10/25 10:47:58;;;;;;;9.13;2.73;;;;;;;14.39;100.00;101536.28;5257772;28;20025;-72
2022/10/25 10:50:31;;;;;;;13.10;3.03;;;;;;;14.43;100.00;101550.94;5257557;28;20086;-71
2022/10/25 10:53:20;;;;;;;10.87;2.90;;;;;;;14.57;100.00;101538.66;5257820;28;20021;-72
2022/10/25 10:55:53;;;;;;;10.43;2.83;;;;;;;14.54;100.00;101541.50;5254982;28;20021;-72
2022/10/25 10:58:28;;;;;;;10.83;2.50;;;;;;;14.75;100.00;101526.88;5257506;28;20061;-72
2022/10/25 11:01:27;;;;;;;14.80;4.30;;;;;;;15.00;100.00;101530.53;5257894;28;20079;-72
2022/10/25 11:03:59;;;;;;;11.73;2.70;;;;;;;15.03;100.00;101531.28;5258851;28;20048;-72
2022/10/25 11:06:33;;;;;;;7.13;3.00;;;;;;;15.12;100.00;101538.56;5259058;28;20020;-72
2022/10/25 11:09:16;;;;;;;12.50;3.67;;;;;;;15.17;100.00;101536.44;5258450;28;20072;-73
2022/10/25 11:12:04;;;;;;;9.43;2.73;;;;;;;15.19;100.00;101536.34;5259315;28;20491;-72
2022/10/25 11:14:36;;;;;;;13.70;3.10;;;;;;;15.16;100.00;101545.31;5257910;28;20498;-73
2022/10/25 11:17:15;;;;;;;12.87;3.77;;;;;;;15.14;100.00;101530.53;5264703;28;20105;-71
2022/10/25 11:20:11;;;;;;;10.23;3.20;;;;;;;15.28;100.00;101537.50;5267505;28;20077;-72
2022/10/25 11:23:00;;;;;;;9.93;2.80;;;;;;;15.41;100.00;101535.69;5256899;28;20021;-74
2022/10/25 11:25:39;;;;;;;11.70;2.40;;;;;;;15.42;100.00;101537.41;5255668;28;20025;-74
2022/10/25 11:28:38;;;;;;;8.43;2.20;;;;;;;15.54;100.00;101538.31;5264091;28;20404;-74
2022/10/25 11:31:21;;;;;;;15.20;2.90;;;;;;;15.46;100.00;101530.94;5253407;28;20372;-74
2022/10/25 11:33:53;;;;;;;12.00;2.73;;;;;;;15.47;100.00;101542.34;5256312;28;20495;-73
2022/10/25 11:37:01;;;;;;;13.17;3.40;;;;;;;15.53;100.00;101535.81;5256542;28;20045;-73
2022/10/25 11:39:45;;;;;;;13.00;4.07;;;;;;;15.50;100.00;101533.38;5259630;28;20072;-71
2022/10/25 11:42:31;;;;;;;8.33;2.80;;;;;;;15.54;100.00;101534.84;5258379;28;20040;-71
2022/10/25 11:45:21;;;;;;;6.23;1.90;;;;;;;15.45;100.00;101534.53;5269242;28;20021;-71
2022/10/25 11:48:18;;;;;;;8.07;2.40;;;;;;;15.43;100.00;101531.16;5266816;28;20028;-72
2022/10/25 11:51:25;;;;;;;8.60;2.43;;;;;;;15.47;100.00;101514.16;5240146;28;20037;-72